createdAt,value
2022-07-30T00:00:53.393Z,4.33
2022-07-30T00:06:13.591Z,4.10
2022-07-30T00:11:33.700Z,4.43
2022-07-30T00:16:54.101Z,4.17
2022-07-30T00:22:14.111Z,4.33
2022-07-30T00:27:34.547Z,4.70
2022-07-30T00:32:54.678Z,3.80
2022-07-30T00:38:15.017Z,4.23
2022-07-30T00:43:35.052Z,4.73
2022-07-30T00:48:55.278Z,4.40
2022-07-30T00:54:15.416Z,4.40
2022-07-30T00:59:35.757Z,3.70
2022-07-30T01:04:55.806Z,4.07
2022-07-30T01:10:15.912Z,4.07
2022-07-30T01:15:35.954Z,3.60
2022-07-30T01:20:56.257Z,3.70
2022-07-30T01:26:16.323Z,3.90
2022-07-30T01:31:36.473Z,4.10
2022-07-30T01:36:56.465Z,4.33
2022-07-30T01:42:16.547Z,5.03
2022-07-30T01:47:36.752Z,4.10
2022-07-30T01:52:56.960Z,4.37
2022-07-30T01:58:17.120Z,4.07
2022-07-30T02:03:37.333Z,3.50
2022-07-30T02:08:57.511Z,4.10
2022-07-30T02:14:17.572Z,4.10
2022-07-30T02:19:37.717Z,3.80
2022-07-30T02:25:01.987Z,4.53
2022-07-30T02:30:22.124Z,4.47
2022-07-30T02:35:42.266Z,3.80
2022-07-30T02:41:02.432Z,3.97
2022-07-30T02:46:22.643Z,3.93
2022-07-30T02:51:42.773Z,4.00
2022-07-30T02:57:03.356Z,4.30
2022-07-30T03:02:29.331Z,3.60
2022-07-30T03:07:49.779Z,4.17
2022-07-30T03:13:09.956Z,4.70
2022-07-30T03:18:29.986Z,4.43
2022-07-30T03:23:50.030Z,4.47
2022-07-30T03:29:10.156Z,3.97
2022-07-30T03:34:30.232Z,3.63
2022-07-30T03:39:50.439Z,3.93
2022-07-30T03:45:10.658Z,3.63
2022-07-30T03:50:30.814Z,3.70
2022-07-30T03:55:51.056Z,3.67
2022-07-30T04:01:11.199Z,4.00
2022-07-30T04:06:31.340Z,3.60
2022-07-30T04:11:51.563Z,3.87
2022-07-30T04:17:11.707Z,3.40
2022-07-30T04:22:32.015Z,3.30
2022-07-30T04:27:58.297Z,4.03
2022-07-30T04:33:23.979Z,3.70
2022-07-30T04:38:44.132Z,4.20
2022-07-30T04:44:04.278Z,3.23
2022-07-30T04:49:24.441Z,4.00
2022-07-30T04:54:44.500Z,4.03
2022-07-30T05:00:05.076Z,3.33
2022-07-30T05:05:25.347Z,3.50
2022-07-30T05:10:45.285Z,4.10
2022-07-30T05:16:05.648Z,3.90
2022-07-30T05:21:25.793Z,3.60
2022-07-30T05:26:48.645Z,3.60
2022-07-30T05:32:08.712Z,4.17
2022-07-30T05:37:28.948Z,4.00
2022-07-30T05:42:49.085Z,4.10
2022-07-30T05:48:09.255Z,5.07
2022-07-30T05:53:29.317Z,5.30
2022-07-30T05:58:49.407Z,4.70
2022-07-30T06:04:09.550Z,5.20
2022-07-30T06:09:36.386Z,5.20
2022-07-30T06:14:57.247Z,5.67
2022-07-30T06:20:17.392Z,5.67
2022-07-30T06:25:38.925Z,5.60
2022-07-30T06:30:59.866Z,5.97
2022-07-30T06:36:20.141Z,6.10
2022-07-30T06:41:40.195Z,5.60
2022-07-30T06:47:06.789Z,5.20
2022-07-30T06:52:27.724Z,5.90
2022-07-30T06:57:47.740Z,6.23
2022-07-30T07:03:11.656Z,7.03
2022-07-30T07:08:32.216Z,6.87
2022-07-30T07:13:52.437Z,8.83
2022-07-30T07:19:12.614Z,8.97
2022-07-30T07:24:52.830Z,9.97
2022-07-30T07:30:13.104Z,12.50
2022-07-30T07:35:33.249Z,13.40
2022-07-30T07:41:09.568Z,14.87
2022-07-30T07:46:33.481Z,18.37
2022-07-30T07:51:54.363Z,19.33
2022-07-30T07:57:15.366Z,19.33
2022-07-30T08:02:35.739Z,20.27
2022-07-30T08:07:55.831Z,22.97
2022-07-30T08:13:49.202Z,21.03
2022-07-30T08:18:55.715Z,19.73
2022-07-30T08:24:15.853Z,21.27
2022-07-30T08:29:36.092Z,22.17
2022-07-30T08:34:56.299Z,22.83
2022-07-30T08:40:16.479Z,24.43
2022-07-30T08:45:39.178Z,23.93
2022-07-30T08:50:59.375Z,23.67
2022-07-30T08:56:19.497Z,23.97
2022-07-30T09:01:39.727Z,23.23
2022-07-30T09:06:59.981Z,22.70
2022-07-30T09:12:20.479Z,21.13
2022-07-30T09:17:40.712Z,23.97
2022-07-30T09:23:01.002Z,21.47
2022-07-30T09:28:21.271Z,21.80
2022-07-30T09:33:41.412Z,20.03
2022-07-30T09:39:01.568Z,19.80
2022-07-30T09:44:21.789Z,18.60
2022-07-30T09:49:41.925Z,17.53
2022-07-30T09:55:07.022Z,19.40
2022-07-30T10:00:27.347Z,17.77
2022-07-30T10:05:47.508Z,18.40
2022-07-30T10:11:09.615Z,17.47
2022-07-30T10:16:29.885Z,17.53
2022-07-30T10:21:50.117Z,15.80
2022-07-30T10:27:10.177Z,16.10
2022-07-30T10:32:31.775Z,14.83
2022-07-30T10:37:51.806Z,14.97
2022-07-30T10:43:12.001Z,14.90
2022-07-30T10:48:36.101Z,15.70
2022-07-30T10:53:56.275Z,14.50
2022-07-30T10:59:16.395Z,12.80
2022-07-30T11:04:36.524Z,13.40
2022-07-30T11:10:05.758Z,14.13
2022-07-30T11:15:33.223Z,12.70
2022-07-30T11:20:57.955Z,11.50
2022-07-30T11:26:17.993Z,12.90
2022-07-30T11:31:56.442Z,14.10
2022-07-30T11:37:22.137Z,12.07
2022-07-30T11:42:52.310Z,12.23
2022-07-30T11:48:12.399Z,12.33
2022-07-30T11:53:32.442Z,10.20
2022-07-30T11:58:54.628Z,11.83
2022-07-30T12:04:14.790Z,11.10
2022-07-30T12:09:34.939Z,11.03
2022-07-30T12:14:57.956Z,10.57
2022-07-30T12:20:21.473Z,10.17
2022-07-30T12:25:48.216Z,10.20
2022-07-30T12:31:11.230Z,9.33
2022-07-30T12:36:31.470Z,9.47
2022-07-30T12:41:51.690Z,10.10
2022-07-30T12:47:11.932Z,9.97
2022-07-30T12:52:32.272Z,9.30
2022-07-30T12:57:53.818Z,8.87
2022-07-30T13:03:13.902Z,8.20
2022-07-30T13:08:33.989Z,8.63
2022-07-30T13:13:54.340Z,9.03
2022-07-30T13:19:15.586Z,7.23
2022-07-30T13:24:35.504Z,7.70
2022-07-30T13:29:55.667Z,7.87
2022-07-30T13:35:15.834Z,8.17
2022-07-30T13:40:36.010Z,8.30
2022-07-30T13:45:59.928Z,7.90
2022-07-30T13:51:20.363Z,7.00
2022-07-30T13:56:41.140Z,8.00
2022-07-30T14:02:01.400Z,7.23
2022-07-30T14:07:21.422Z,7.20
2022-07-30T14:12:41.548Z,6.40
2022-07-30T14:18:01.784Z,5.90
2022-07-30T14:23:21.809Z,6.13
2022-07-30T14:28:42.090Z,6.30
2022-07-30T14:34:02.127Z,6.00
2022-07-30T14:39:22.525Z,6.27
2022-07-30T14:44:42.684Z,6.20
2022-07-30T14:50:02.833Z,5.27
2022-07-30T14:55:22.908Z,5.50
2022-07-30T15:00:48.537Z,5.83
2022-07-30T15:06:09.434Z,5.13
2022-07-30T15:11:40.255Z,5.40
2022-07-30T15:17:09.889Z,5.60
2022-07-30T15:22:30.037Z,5.30
2022-07-30T15:27:50.159Z,4.80
2022-07-30T15:33:10.201Z,4.40
2022-07-30T15:38:30.409Z,5.00
2022-07-30T15:43:50.624Z,4.33
2022-07-30T15:49:10.835Z,4.10
2022-07-30T15:54:30.854Z,4.50
2022-07-30T15:59:51.098Z,4.37
2022-07-30T16:05:13.999Z,4.87
2022-07-30T16:10:34.698Z,4.17
2022-07-30T16:15:57.050Z,4.57
2022-07-30T16:21:17.160Z,4.00
2022-07-30T16:26:37.435Z,3.77
2022-07-30T16:31:57.590Z,3.50
2022-07-30T16:37:17.798Z,3.97
2022-07-30T16:42:37.833Z,4.07
2022-07-30T16:47:58.185Z,3.57
2022-07-30T16:53:18.305Z,3.47
2022-07-30T16:58:38.490Z,3.40
2022-07-30T17:03:58.665Z,2.93
2022-07-30T17:09:18.699Z,3.47
2022-07-30T17:14:40.343Z,3.27
2022-07-30T17:20:00.739Z,3.57
2022-07-30T17:25:20.878Z,3.20
2022-07-30T17:30:41.149Z,3.73
2022-07-30T17:36:01.303Z,3.33
2022-07-30T17:41:21.506Z,3.10
2022-07-30T17:46:41.540Z,3.23
2022-07-30T17:52:01.999Z,3.07
2022-07-30T17:57:22.424Z,2.87
2022-07-30T18:02:42.464Z,3.10
2022-07-30T18:08:02.604Z,3.10
2022-07-30T18:13:26.472Z,3.50
2022-07-30T18:18:47.381Z,3.23
2022-07-30T18:24:07.620Z,3.03
2022-07-30T18:29:28.784Z,3.13
2022-07-30T18:34:48.947Z,3.67
2022-07-30T18:40:09.042Z,3.20
2022-07-30T18:45:31.892Z,3.00
2022-07-30T18:50:54.175Z,3.00
2022-07-30T18:56:14.257Z,3.13
2022-07-30T19:01:34.439Z,3.03
2022-07-30T19:06:54.502Z,2.90
2022-07-30T19:12:14.815Z,2.70
2022-07-30T19:17:46.597Z,3.17
2022-07-30T19:23:07.178Z,2.77
2022-07-30T19:28:27.325Z,2.83
2022-07-30T19:33:47.337Z,2.80
2022-07-30T19:39:09.371Z,3.00
2022-07-30T19:44:35.046Z,3.10
2022-07-30T19:49:57.849Z,2.70
2022-07-30T19:55:35.357Z,2.80
2022-07-30T20:00:55.907Z,2.50
2022-07-30T20:06:16.556Z,3.10
2022-07-30T20:11:36.738Z,2.47
2022-07-30T20:16:56.834Z,2.60
2022-07-30T20:22:22.234Z,2.77
2022-07-30T20:27:44.464Z,2.30
2022-07-30T20:33:04.787Z,2.60
2022-07-30T20:38:27.608Z,3.00
2022-07-30T20:43:51.984Z,2.50
2022-07-30T20:49:12.486Z,2.57
2022-07-30T20:54:32.688Z,2.40
2022-07-30T20:59:53.387Z,2.93
2022-07-30T21:05:15.015Z,2.80
2022-07-30T21:10:35.531Z,2.37
2022-07-30T21:16:02.613Z,3.00
2022-07-30T21:21:29.174Z,2.67
2022-07-30T21:26:58.577Z,2.90
2022-07-30T21:32:20.793Z,2.60
2022-07-30T21:37:45.932Z,2.77
2022-07-30T21:43:08.143Z,2.60
2022-07-30T21:48:28.396Z,2.40
2022-07-30T21:53:48.966Z,2.57
2022-07-30T21:59:09.362Z,2.80
2022-07-30T22:04:29.199Z,2.60
2022-07-30T22:09:49.319Z,2.60
2022-07-30T22:15:09.396Z,3.00
2022-07-30T22:20:29.492Z,2.90
2022-07-30T22:25:50.078Z,2.53
2022-07-30T22:31:20.492Z,2.77
2022-07-30T22:36:40.681Z,2.33
2022-07-30T22:42:01.584Z,3.27
2022-07-30T22:47:51.159Z,2.50
2022-07-30T22:53:23.757Z,2.57
2022-07-30T22:58:42.720Z,2.50
2022-07-30T23:04:03.362Z,2.60
2022-07-30T23:09:23.459Z,2.43
2022-07-30T23:14:46.720Z,2.43
2022-07-30T23:20:06.910Z,2.60
2022-07-30T23:25:27.124Z,2.87
2022-07-30T23:30:58.695Z,2.70
2022-07-30T23:36:18.860Z,2.40
2022-07-30T23:41:38.974Z,2.50
2022-07-30T23:46:59.396Z,2.50
2022-07-30T23:52:19.824Z,3.00
2022-07-30T23:57:39.894Z,2.60
